Onion Creek, California Weather observations

Data are for observation ending at time listed.
 Day   Time    Ave.   Ave.  Ave.  Vector   Max.   Stn.    Total    Solar   Ave.   Snow 
  of    of     Air    Rel.  Wind   Wind    Wind   Baro.  Precip.   Rad.    Soil   Depth
Year   Day     Temp.  Hum.  Speed  Dir.    Gust   Pres.                    Temp.       
2014   (PST)    F      %     mph   deg.    mph     mb.     in.     W/m2     F      in. 
---------------------------------------------------------------------------------------  
 106   18:40   50.1    75    1.1    12      2.2   828.0   26.77       5    999.0   999.0
 106   18:50   49.0    75    0.7    11      1.3   828.1   26.79       2    999.0   999.0
 106   19:00   47.9    77    1.6    23      2.6   828.2   26.79       1    999.0   999.0
 106   19:10   47.0    78    1.7    33      2.6   828.2   26.79       0    999.0   999.0
 106   19:20   46.2    79    0.7    24      2.6   828.3   26.79       0    999.0   999.0
 106   19:30   45.7    81    1.2    40      2.8   828.4   26.79       0    999.0   999.0
 106   19:40   45.0    82    1.2    42      2.7   828.4   26.79       0    999.0   999.0
 106   19:50   44.3    82    1.8    25      3.1   828.6   26.79       0    999.0   999.0
 106   20:00   44.2    83    1.6    46      2.9   828.7   26.77       0    999.0   999.0
 106   20:10   44.0    83    1.9    32      2.8   828.8   26.79       0    999.0   999.0
 106   20:20   43.6    83    1.4    40      2.3   828.7   26.79       0    999.0   999.0
 106   20:30   43.5    84    1.7    42      3.5   828.6   26.79       0    999.0   999.0
 106   20:40   43.4    84    1.2    27      2.4   828.6   26.79       0    999.0   999.0
 106   20:50   42.9    85    1.1    29      2.3   828.7   26.79       0    999.0   999.0
 106   21:00   42.6    86    1.0    41      2.9   828.7   26.79       0    999.0   999.0
 106   21:10   42.3    87    1.3    37      2.6   828.7   26.79       0    999.0   999.0
 106   21:20   42.3    87    1.1    47      2.2   828.6   26.82       0    999.0   999.0
 106   21:30   42.1    87    1.5    24      2.8   828.6   26.79       0    999.0   999.0
 106   21:40   41.8    87    1.3    33      2.6   828.7   26.79       0    999.0   999.0
 106   21:50   41.6    88    0.4    37      1.7   828.7   26.79       0    999.0   999.0
 106   22:00   41.2    88    0.7    29      2.1   828.7   26.79       0    999.0   999.0
 106   22:10   41.1    88    1.0    33      1.8   828.6   26.82       0    999.0   999.0
 106   22:20   41.1    87    1.6    39      3.0   828.5   26.79       0    999.0   999.0
 106   22:30   41.2    86    1.3    30      2.8   828.5   26.79       0    999.0   999.0
 106   22:40   41.2    85    1.5    30      2.5   828.5   26.79       0    999.0   999.0
 106   22:50   41.2    85    1.3    34      2.9   828.3   26.79       0    999.0   999.0
 106   23:00   41.1    85    1.1    24      2.3   828.2   26.79       0    999.0   999.0
 106   23:10   41.2    85    1.0    36      2.3   828.1   26.82       0    999.0   999.0
 106   23:20   41.2    84    0.2   136      1.7   828.1   26.79       0    999.0   999.0
 106   23:30   40.9    86    1.0    22      2.6   828.1   26.79       0    999.0   999.0
 106   23:40   41.3    85    0.9    33      2.3   828.1   26.79       0    999.0   999.0
 106   23:50   41.6    85    1.2    38      2.6   828.0   26.79       0    999.0   999.0
 107    0:00   41.5    85    0.8    50      1.6   828.0   26.79       0    999.0   999.0
 107    0:10   41.4    85    1.0    32      2.0   828.0   26.79       0    999.0   999.0
 107    0:20   41.2    86    1.4    33      3.4   828.0   26.79       0    999.0   999.0
 107    0:30   41.2    86    1.0    40      2.1   828.0   26.79       0    999.0   999.0
 107    0:40   41.1    87    1.1    42      2.4   828.1   26.79       0    999.0   999.0
 107    0:50   40.8    87    1.5    34      3.3   828.0   26.82       0    999.0   999.0
 107    1:00   40.9    86    1.8    32      3.1   827.9   26.79       0    999.0   999.0
 107    1:10   40.7    85    1.2    30      2.9   827.7   26.79       0    999.0   999.0
 107    1:20   40.3    86    0.7    35      2.8   827.7   26.79       0    999.0   999.0
 107    1:30   40.0    86    1.9    39      3.1   827.7   26.79       0    999.0   999.0
 107    1:40   40.1    86    1.2    31      2.1   827.6   26.79       0    999.0   999.0
 107    1:50   40.1    86    1.6    30      2.6   827.5   26.79       0    999.0   999.0
 107    2:00   40.1    86    1.4    42      2.3   827.4   26.79       0    999.0   999.0
 107    2:10   39.8    86    0.6    35      2.0   827.4   26.79       0    999.0   999.0
 107    2:20   39.5    87    1.6    37      3.0   827.4   26.79       0    999.0   999.0
 107    2:30   39.7    87    1.9    42      3.5   827.3   26.82       0    999.0   999.0
 107    2:40   40.2    84    2.5    26      4.2   827.3   26.79       0    999.0   999.0
 107    2:50   40.2    83    1.9    28      3.5   827.2   26.82       0    999.0   999.0
 107    3:00   40.0    83    2.3    30      3.7   827.2   26.82       0    999.0   999.0
 107    3:10   40.1    82    1.8    37      3.7   827.0   26.79       0    999.0   999.0
 107    3:20   39.7    83    1.4    18      2.9   826.9   26.79       0    999.0   999.0
 107    3:30   39.6    83    2.0    41      3.8   826.9   26.82       0    999.0   999.0
 107    3:40   39.6    83    2.0    38      2.9   826.8   26.79       0    999.0   999.0
 107    3:50   39.6    82    1.3    23      3.4   826.7   26.79       0    999.0   999.0
 107    4:00   39.5    83    1.4    28      3.7   826.6   26.79       0    999.0   999.0
 107    4:10   39.2    84    1.5    29      3.0   826.6   26.82       0    999.0   999.0
 107    4:20   38.9    84    1.1    34      2.0   826.6   26.82       0    999.0   999.0
 107    4:30   38.9    86    1.7    39      3.1   826.7   26.79       0    999.0   999.0
 107    4:40   39.0    85    1.9    38      3.4   826.6   26.79       0    999.0   999.0
 107    4:50   39.2    85    2.2    33      3.2   826.6   26.82       0    999.0   999.0
 107    5:00   39.6    84    2.5    37      3.3   826.5   26.79       0    999.0   999.0
 107    5:10   39.4    84    2.0    31      3.1   826.5   26.79       0    999.0   999.0
 107    5:20   38.9    85    1.6    27      2.7   826.5   26.79       1    999.0   999.0
 107    5:30   39.2    84    2.7    35      3.7   826.5   26.79       3    999.0   999.0
 107    5:40   39.2    84    1.4    23      2.6   826.5   26.79       6    999.0   999.0
 107    5:50   39.0    85    1.7    32      3.2   826.5   26.79       8    999.0   999.0
 107    6:00   38.9    86    0.9    32      1.9   826.6   26.82      10    999.0   999.0
 107    6:10   38.6    87    2.1    36      3.1   826.7   26.79      12    999.0   999.0
 107    6:20   39.3    85    1.6    28      2.3   826.7   26.82      13    999.0   999.0
 107    6:30   39.5    84    2.0    47      2.9   826.8   26.79      15    999.0   999.0
 107    6:40   39.8    84    1.5    33      2.5   826.9   26.79      16    999.0   999.0
 107    6:50   39.7    84    2.2    41      3.3   827.0   26.79      18    999.0   999.0
 107    7:00   40.0    84    1.8    33      2.9   827.0   26.79      21    999.0   999.0
 107    7:10   40.5    84    2.4    36      3.3   827.1   26.79      24    999.0   999.0
 107    7:20   41.5    82    2.0    42      2.9   827.0   26.79      27    999.0   999.0
 107    7:30   42.3    81    1.6    50      2.9   827.0   26.82      28    999.0   999.0
 107    7:40   43.3    81    1.5    62      2.3   827.0   26.82      30    999.0   999.0
 107    7:50   44.4    80    1.6    68      2.9   827.0   26.79      35    999.0   999.0
 107    8:00   45.4    78    1.6    56      2.7   827.0   26.82      33    999.0   999.0
 107    8:10   46.5    77    1.2    57      2.6   827.0   26.82      35    999.0   999.0
 107    8:20   47.8    76    0.9    67      2.1   827.1   26.82      62    999.0   999.0
 107    8:30   50.0    71    1.1    96      4.1   827.1   26.85     505    999.0   999.0
 107    8:40   53.3    60    2.0   218      5.6   827.2   26.82     634    999.0   999.0
 107    8:50   55.8    55    2.1   241      5.8   827.2   26.82     659    999.0   999.0
 107    9:00   57.1    47    3.8   254     10.4   827.4   26.82     696    999.0   999.0
 107    9:10   57.3    48    3.6   260      8.6   827.4   26.82     611    999.0   999.0
 107    9:20   57.2    49    3.8   275     10.4   827.4   26.79     625    999.0   999.0
 107    9:30   57.2    48    3.9   273     10.9   827.4   26.82     653    999.0   999.0
 107    9:40   57.0    50    4.4   252      9.1   827.4   26.79     555    999.0   999.0
 107    9:50   57.4    50    4.0   261      9.4   827.4   26.79     632    999.0   999.0
 107   10:00   57.7    49    4.3   259     12.6   827.5   26.79     510    999.0   999.0
 107   10:10   57.9    50    2.7   258      8.4   827.5   26.82     706    999.0   999.0
 107   10:20   58.7    47    4.3   264     10.9   827.6   26.82     547    999.0   999.0
 107   10:30   57.9    49    3.4   258     10.0   827.6   26.79     582    999.0   999.0
 107   10:40   58.8    46    3.9   258     11.3   827.5   26.79     648    999.0   999.0
 107   10:50   59.3    44    4.3   258     11.4   827.5   26.82     858    999.0   999.0
 107   11:00   60.3    41    3.8   251      8.9   827.6   26.82     936    999.0   999.0
 107   11:10   60.4    39    5.9   262     18.3   827.6   26.79     977    999.0   999.0
 107   11:20   60.4    38    4.0   254     12.9   827.5   26.79     968    999.0   999.0
 107   11:30   60.7    38    3.8   246      9.0   827.6   26.82     972    999.0   999.0
 107   11:40   60.6    40    4.7   259     14.9   827.5   26.79     980    999.0   999.0
 107   11:50   61.0    40    3.7   243     11.8   827.4   26.79    1003    999.0   999.0
 107   12:00   60.1    41    4.5   262     11.0   827.3   26.82     834    999.0   999.0
 107   12:10   60.7    42    4.7   264     11.2   827.3   26.79     998    999.0   999.0
 107   12:20   60.5    41    4.9   250     13.0   827.3   26.82     998    999.0   999.0
 107   12:30   60.6    41    5.0   244     13.5   827.1   26.82    1013    999.0   999.0
 107   12:40   60.8    41    4.9   249     14.2   827.0   26.79     972    999.0   999.0
 107   12:50   61.0    41    5.3   261     13.5   827.0   26.79     983    999.0   999.0
 107   13:00   60.5    41    5.5   248     14.8   827.0   26.79     943    999.0   999.0
 107   13:10   61.1    40    5.7   269     14.2   826.9   26.82     934    999.0   999.0
 107   13:20   61.4    40    5.3   261     14.0   826.9   26.82     937    999.0   999.0
 107   13:30   61.7    40    4.0   259     13.2   826.8   26.79     932    999.0   999.0
 107   13:40   62.0    38    4.2   252     12.6   826.8   26.82     944    999.0   999.0
 107   13:50   62.2    38    4.7   267     13.0   826.7   26.79     936    999.0   999.0
 107   14:00   62.2    39    4.1   273      9.4   826.6   26.79     909    999.0   999.0
 107   14:10   62.3    37    3.9   262     12.2   826.5   26.79     829    999.0   999.0
 107   14:20   62.4    37    5.4   252     17.0   826.4   26.79     792    999.0   999.0
 107   14:30   62.5    36    5.7   272     13.2   826.4   26.79     895    999.0   999.0
 107   14:40   62.7    37    5.4   270     15.9   826.3   26.79     787    999.0   999.0
 107   14:50   62.6    38    6.3   266     14.8   826.3   26.79     889    999.0   999.0
 107   15:00   61.9    40    6.7   261     16.1   826.2   26.79     738    999.0   999.0
 107   15:10   61.1    44    4.9   256     16.3   826.2   26.79     630    999.0   999.0
 107   15:20   60.7    45    5.7   246     17.0   826.1   26.79     547    999.0   999.0
 107   15:30   60.0    48    4.7   249     17.5   826.1   26.79     614    999.0   999.0
 107   15:40   60.3    47    4.8   256     13.6   826.1   26.77     615    999.0   999.0
 107   15:50   59.7    48    4.7   240     13.7   826.1   26.79     482    999.0   999.0
 107   16:00   59.6    48    6.3   264     15.1   826.1   26.79     613    999.0   999.0
 107   16:10   58.5    50    4.6   260     10.7   826.1   26.79     331    999.0   999.0
 107   16:20   58.3    50    3.8   248     10.0   826.2   26.77     253    999.0   999.0
 107   16:30   57.1    52    3.6   246     12.9   826.2   26.79     120    999.0   999.0
 107   16:40   56.9    52    3.8   258     11.7   826.2   26.82     294    999.0   999.0
 107   16:50   56.4    51    5.6   260     14.1   826.3   26.79     107    999.0   999.0
 107   17:00   55.7    53    3.6   265     14.3   826.3   26.79     108    999.0   999.0
 107   17:10   55.7    53    4.2   274     13.3   826.2   26.79     102    999.0   999.0
 107   17:20   55.6    53    4.2   265     12.7   826.2   26.79      93    999.0   999.0
 107   17:30   56.3    50    5.2   270     11.6   826.1   26.79      87    999.0   999.0
 107   17:40   55.8    52    3.2   245      8.1   826.1   26.79     113    999.0   999.0
 107   17:50   55.4    54    3.6   258      8.0   826.1   26.79      66    999.0   999.0
 107   18:00   54.7    55    3.4   241      8.9   826.1   26.79     110    999.0   999.0
 107   18:10   53.8    57    2.4   229      9.2   826.1   26.79      30    999.0   999.0
 107   18:20   52.0    61    2.0   197      9.3   826.1   26.79      10    999.0   999.0
 107   18:30   51.0    64    1.3   211      3.9   826.1   26.82       6    999.0   999.0

Return to Onion Creek graphs page.


Western Regional Climate Center,wrcc@dri.edu